createdAt,value
2018-09-08T00:02:28.124Z,60.2
2018-09-08T00:07:28.587Z,60.0
2018-09-08T00:12:27.439Z,59.9
2018-09-08T00:17:28.363Z,59.9
2018-09-08T00:22:27.225Z,59.8
2018-09-08T00:27:28.344Z,59.8
2018-09-08T00:32:29.677Z,59.9
2018-09-08T00:37:27.234Z,60.0
2018-09-08T00:42:27.569Z,59.7
2018-09-08T00:47:29.545Z,59.7
2018-09-08T00:52:27.570Z,59.6
2018-09-08T00:57:28.292Z,59.6
2018-09-08T01:02:28.543Z,59.7
2018-09-08T01:07:27.631Z,59.5
2018-09-08T01:12:27.896Z,59.5
2018-09-08T01:17:27.874Z,59.3
2018-09-08T01:22:28.692Z,59.3
2018-09-08T01:27:28.283Z,59.4
2018-09-08T01:32:27.578Z,59.4
2018-09-08T01:37:27.735Z,59.6
2018-09-08T01:42:27.621Z,59.5
2018-09-08T01:47:28.445Z,59.4
2018-09-08T01:52:28.402Z,59.7
2018-09-08T01:57:28.628Z,59.6
2018-09-08T02:02:27.615Z,59.7
2018-09-08T02:07:28.511Z,59.6
2018-09-08T02:12:27.562Z,59.7
2018-09-08T02:17:29.127Z,59.7
2018-09-08T02:22:28.586Z,59.8
2018-09-08T02:27:27.440Z,59.7
2018-09-08T02:32:27.498Z,59.8
2018-09-08T02:37:28.486Z,59.9
2018-09-08T02:42:28.197Z,60.2
2018-09-08T02:47:27.908Z,60.0
2018-09-08T02:52:27.677Z,60.0
2018-09-08T02:57:27.763Z,59.9
2018-09-08T03:02:28.378Z,59.7
2018-09-08T03:07:27.941Z,59.8
2018-09-08T03:12:28.033Z,59.5
2018-09-08T03:17:28.526Z,59.3
2018-09-08T03:22:27.609Z,59.3
2018-09-08T03:27:27.863Z,59.3
2018-09-08T03:32:28.472Z,59.3
2018-09-08T03:37:27.611Z,59.2
2018-09-08T03:42:28.164Z,59.2
2018-09-08T03:47:28.417Z,59.2
2018-09-08T03:52:27.337Z,59.3
2018-09-08T03:57:27.707Z,59.2
2018-09-08T04:02:28.214Z,59.3
2018-09-08T04:07:28.500Z,59.2
2018-09-08T04:12:29.074Z,59.2
2018-09-08T04:17:27.752Z,59.2
2018-09-08T04:22:28.181Z,59.3
2018-09-08T04:27:28.409Z,59.1
2018-09-08T04:32:28.476Z,58.9
2018-09-08T04:37:28.449Z,59.1
2018-09-08T04:42:28.214Z,59.0
2018-09-08T04:47:28.993Z,59.1
2018-09-08T04:52:28.384Z,59.1
2018-09-08T04:57:28.310Z,59.2
2018-09-08T05:02:28.953Z,59.2
2018-09-08T05:07:27.897Z,58.9
2018-09-08T05:12:28.101Z,58.9
2018-09-08T05:17:28.923Z,58.9
2018-09-08T05:22:28.600Z,58.9
2018-09-08T05:27:28.102Z,58.7
2018-09-08T05:32:27.844Z,58.7
2018-09-08T05:37:30.357Z,58.6
2018-09-08T05:42:28.796Z,58.5
2018-09-08T05:47:28.349Z,58.5
2018-09-08T05:52:29.212Z,58.5
2018-09-08T05:57:27.671Z,58.4
2018-09-08T06:02:28.481Z,58.3
2018-09-08T06:07:28.553Z,58.4
2018-09-08T06:12:27.872Z,58.2
2018-09-08T06:17:29.097Z,58.1
2018-09-08T06:22:28.442Z,58.0
2018-09-08T06:27:27.578Z,57.9
2018-09-08T06:32:28.579Z,57.7
2018-09-08T06:37:28.697Z,57.7
2018-09-08T06:42:27.887Z,57.7
2018-09-08T06:47:29.693Z,57.7
2018-09-08T06:52:27.716Z,57.5
2018-09-08T06:57:28.941Z,57.7
2018-09-08T07:02:28.381Z,57.7
2018-09-08T07:07:28.639Z,57.8
2018-09-08T07:12:27.573Z,57.9
2018-09-08T07:17:29.316Z,57.9
2018-09-08T07:22:27.669Z,58.0
2018-09-08T07:27:28.732Z,58.0
2018-09-08T07:32:28.185Z,58.1
2018-09-08T07:37:28.859Z,58.2
2018-09-08T07:42:28.894Z,58.2
2018-09-08T07:47:28.980Z,58.4
2018-09-08T07:52:27.745Z,58.5
2018-09-08T07:57:28.229Z,58.5
2018-09-08T08:02:27.910Z,58.7
2018-09-08T08:07:28.192Z,58.9
2018-09-08T08:12:28.262Z,59.0
2018-09-08T08:17:28.796Z,59.1
2018-09-08T08:22:28.514Z,59.3
2018-09-08T08:27:28.851Z,59.4
2018-09-08T08:32:28.476Z,59.3
2018-09-08T08:37:28.068Z,59.5
2018-09-08T08:42:28.431Z,59.6
2018-09-08T08:47:29.062Z,59.5
2018-09-08T08:52:28.206Z,59.6
2018-09-08T08:57:28.267Z,59.7
2018-09-08T09:02:28.750Z,59.9
2018-09-08T09:07:28.483Z,59.9
2018-09-08T09:12:28.552Z,59.9
2018-09-08T09:17:28.277Z,60.1
2018-09-08T09:22:28.993Z,60.2
2018-09-08T09:27:28.898Z,60.4
2018-09-08T09:32:28.232Z,60.5
2018-09-08T09:37:28.561Z,60.3
2018-09-08T09:42:28.480Z,60.8
2018-09-08T09:47:29.739Z,60.9
2018-09-08T09:52:28.273Z,61.0
2018-09-08T09:57:28.185Z,61.0
2018-09-08T10:02:29.021Z,61.2
2018-09-08T10:07:28.882Z,60.9
2018-09-08T10:12:28.292Z,60.9
2018-09-08T10:17:29.005Z,61.1
2018-09-08T10:22:28.422Z,61.1
2018-09-08T10:27:28.254Z,60.9
2018-09-08T10:32:27.876Z,61.1
2018-09-08T10:37:28.424Z,61.1
2018-09-08T10:42:28.401Z,61.3
2018-09-08T10:47:28.890Z,61.1
2018-09-08T10:52:28.658Z,60.7
2018-09-08T10:57:28.354Z,60.7
2018-09-08T11:02:28.803Z,60.8
2018-09-08T11:07:29.269Z,60.8
2018-09-08T11:12:29.274Z,60.6
2018-09-08T11:17:28.762Z,61.5
2018-09-08T11:22:28.767Z,61.0
2018-09-08T11:27:28.612Z,62.4
2018-09-08T11:32:28.179Z,62.3
2018-09-08T11:37:28.408Z,62.2
2018-09-08T11:42:28.985Z,61.9
2018-09-08T11:47:28.291Z,62.2
2018-09-08T11:52:27.854Z,62.2
2018-09-08T11:57:27.843Z,61.8
2018-09-08T12:02:28.538Z,62.1
2018-09-08T12:07:29.115Z,62.8
2018-09-08T12:12:28.323Z,62.8
2018-09-08T12:17:28.730Z,62.8
2018-09-08T12:22:29.080Z,62.8
2018-09-08T12:27:29.022Z,62.4
2018-09-08T12:32:29.549Z,62.9
2018-09-08T12:37:28.515Z,62.4
2018-09-08T12:42:29.951Z,62.3
2018-09-08T12:47:28.824Z,62.8
2018-09-08T12:52:28.237Z,62.5
2018-09-08T12:57:28.684Z,62.0
2018-09-08T13:02:29.778Z,63.2
2018-09-08T13:07:28.303Z,62.1
2018-09-08T13:12:28.332Z,63.0
2018-09-08T13:17:27.981Z,63.0
2018-09-08T13:22:27.734Z,62.2
2018-09-08T13:27:28.996Z,62.7
2018-09-08T13:32:28.528Z,63.0
2018-09-08T13:37:28.331Z,62.6
2018-09-08T13:42:29.017Z,63.1
2018-09-08T13:47:28.541Z,62.9
2018-09-08T13:52:28.803Z,63.2
2018-09-08T13:57:28.394Z,63.2
2018-09-08T14:02:28.271Z,63.3
2018-09-08T14:07:28.875Z,64.2
2018-09-08T14:12:28.454Z,63.7
2018-09-08T14:17:30.522Z,64.2
2018-09-08T14:22:28.451Z,62.7
2018-09-08T14:27:28.552Z,61.0
2018-09-08T14:32:28.344Z,56.9
2018-09-08T14:37:28.546Z,56.9
2018-09-08T14:42:28.069Z,54.6
2018-09-08T14:47:28.842Z,52.1
2018-09-08T14:52:27.972Z,51.2
2018-09-08T14:57:27.956Z,48.1
2018-09-08T15:02:28.216Z,48.1
2018-09-08T15:07:28.399Z,47.9
2018-09-08T15:12:28.055Z,46.7
2018-09-08T15:17:28.699Z,45.9
2018-09-08T15:22:28.793Z,44.8
2018-09-08T15:27:28.828Z,44.8
2018-09-08T15:32:29.876Z,43.7
2018-09-08T15:37:27.954Z,43.7
2018-09-08T15:42:28.970Z,46.0
2018-09-08T15:47:28.365Z,45.3
2018-09-08T15:52:28.183Z,44.1
2018-09-08T15:57:28.698Z,44.9
2018-09-08T16:02:28.043Z,44.3
2018-09-08T16:07:27.711Z,44.9
2018-09-08T16:12:28.801Z,45.5
2018-09-08T16:17:28.684Z,46.4
2018-09-08T16:22:28.270Z,47.7
2018-09-08T16:27:27.780Z,49.9
2018-09-08T16:32:28.072Z,49.9
2018-09-08T16:37:28.026Z,49.9
2018-09-08T16:42:28.533Z,48.9
2018-09-08T16:47:28.492Z,49.5
2018-09-08T16:52:29.117Z,52.0
2018-09-08T16:57:28.558Z,52.7
2018-09-08T17:02:28.480Z,54.1
2018-09-08T17:07:27.878Z,54.0
2018-09-08T17:12:27.769Z,54.1
2018-09-08T17:17:27.838Z,54.0
2018-09-08T17:22:28.286Z,52.7
2018-09-08T17:27:27.718Z,53.4
2018-09-08T17:32:29.410Z,51.5
2018-09-08T17:37:28.970Z,51.5
2018-09-08T17:42:28.280Z,53.2
2018-09-08T17:47:28.493Z,55.1
2018-09-08T17:52:27.909Z,55.9
2018-09-08T17:57:28.170Z,56.3
2018-09-08T18:02:28.599Z,56.7
2018-09-08T18:07:28.013Z,57.1
2018-09-08T18:12:28.543Z,57.1
2018-09-08T18:17:28.345Z,57.6
2018-09-08T18:22:29.643Z,57.7
2018-09-08T18:27:28.101Z,57.9
2018-09-08T18:32:28.277Z,57.9
2018-09-08T18:37:28.037Z,57.9
2018-09-08T18:42:28.415Z,57.9
2018-09-08T18:47:28.761Z,57.9
2018-09-08T18:52:27.817Z,58.0
2018-09-08T18:57:28.796Z,58.0
2018-09-08T19:02:28.470Z,57.9
2018-09-08T19:07:27.885Z,57.8
2018-09-08T19:12:27.266Z,57.9
2018-09-08T19:17:28.044Z,57.8
2018-09-08T19:22:27.903Z,57.7
2018-09-08T19:27:28.248Z,57.7
2018-09-08T19:32:29.167Z,57.6
2018-09-08T19:37:28.841Z,57.6
2018-09-08T19:42:28.304Z,57.6
2018-09-08T19:47:28.016Z,57.7
2018-09-08T19:52:28.661Z,57.7
2018-09-08T19:57:27.624Z,57.5
2018-09-08T20:02:27.955Z,57.4
2018-09-08T20:07:27.296Z,57.4
2018-09-08T20:12:28.131Z,57.5
2018-09-08T20:17:27.911Z,57.5
2018-09-08T20:22:27.849Z,57.4
2018-09-08T20:27:28.156Z,57.5
2018-09-08T20:32:28.130Z,57.3
2018-09-08T20:37:27.288Z,57.3
2018-09-08T20:42:27.806Z,57.5
2018-09-08T20:47:28.015Z,57.3
2018-09-08T20:52:28.384Z,57.4
2018-09-08T20:57:28.294Z,57.4
2018-09-08T21:02:28.154Z,57.3
2018-09-08T21:07:28.515Z,57.2
2018-09-08T21:12:28.090Z,57.3
2018-09-08T21:17:28.120Z,57.4
2018-09-08T21:22:27.790Z,57.4
2018-09-08T21:27:27.889Z,57.4
2018-09-08T21:32:28.309Z,57.4
2018-09-08T21:37:27.121Z,57.2
2018-09-08T21:42:28.090Z,57.2
2018-09-08T21:47:28.130Z,57.2
2018-09-08T21:52:27.356Z,57.1
2018-09-08T21:57:28.343Z,57.1
2018-09-08T22:02:29.181Z,57.2
2018-09-08T22:07:28.185Z,57.1
2018-09-08T22:12:27.726Z,57.2
2018-09-08T22:23:04.649Z,57.0
2018-09-08T22:28:03.333Z,57.2
2018-09-08T22:33:03.342Z,57.4
2018-09-08T22:38:03.064Z,57.4
2018-09-08T22:43:04.273Z,57.3
2018-09-08T22:48:04.278Z,57.4
2018-09-08T22:53:03.637Z,57.4
2018-09-08T22:58:03.991Z,57.4
2018-09-08T23:03:03.952Z,57.4
2018-09-08T23:08:04.929Z,57.3
2018-09-08T23:12:27.714Z,57.2
2018-09-08T23:17:27.633Z,57.2
2018-09-08T23:22:27.123Z,57.1
2018-09-08T23:27:28.226Z,57.2
2018-09-08T23:32:29.917Z,57.1
2018-09-08T23:37:28.553Z,57.1
2018-09-08T23:42:27.114Z,57.1
2018-09-08T23:47:27.349Z,56.8
2018-09-08T23:52:27.413Z,56.9
2018-09-08T23:57:27.389Z,56.9
